Time;durP1;ratioP1;P1;durP2;ratioP2;P2;SDS_P1;SDS_P2;PMS_P1;PMS_P2;Temp;Humidity;BMP_temperature;BMP_pressure;BME280_temperature;BME280_humidity;BME280_pressure;Samples;Min_cycle;Max_cycle;Signal;HPM_P1;HPM_P2
2022/03/03 00:00:10;;;;;;;25.33;13.90;;;2.10;99.90;;;;;;5022233;28;20018;-81
2022/03/03 00:02:40;;;;;;;28.75;14.60;;;2.10;99.90;;;;;;5022553;28;20022;-78
2022/03/03 00:05:14;;;;;;;26.17;14.10;;;2.10;99.90;;;;;;5026190;28;20104;-80
2022/03/03 00:07:44;;;;;;;26.73;13.32;;;2.00;99.90;;;;;;5000906;28;20343;-78
2022/03/03 00:10:11;;;;;;;26.23;13.75;;;2.00;99.90;;;;;;5006397;28;20098;-81
2022/03/03 00:12:40;;;;;;;24.42;14.20;;;2.00;99.90;;;;;;5024077;28;20030;-80
2022/03/03 00:15:07;;;;;;;25.88;13.73;;;2.00;99.90;;;;;;5014296;28;20041;-79
2022/03/03 00:17:33;;;;;;;24.13;13.38;;;;;;;;;;5031165;28;20081;-81
2022/03/03 00:19:59;;;;;;;22.98;13.13;;;;;;;;;;5018086;28;20026;-81
2022/03/03 00:22:25;;;;;;;26.33;13.20;;;2.00;99.90;;;;;;5033340;28;20042;-80
2022/03/03 00:24:52;;;;;;;28.40;14.18;;;2.00;99.90;;;;;;5015062;28;20026;-80
2022/03/03 00:27:19;;;;;;;25.45;14.10;;;;;;;;;;5001337;28;20052;-79
2022/03/03 00:29:44;;;;;;;29.00;15.45;;;1.90;99.90;;;;;;4999847;28;20023;-79
2022/03/03 00:32:10;;;;;;;28.92;16.30;;;1.90;99.90;;;;;;5015218;28;20049;-80
2022/03/03 00:34:36;;;;;;;30.88;15.57;;;;;;;;;;5018129;28;20505;-81
2022/03/03 00:37:03;;;;;;;26.95;16.30;;;1.90;99.90;;;;;;5019712;28;20512;-80
2022/03/03 00:39:29;;;;;;;34.15;16.77;;;1.90;99.90;;;;;;5026637;28;20014;-82
2022/03/03 00:41:55;;;;;;;27.75;16.05;;;1.80;99.90;;;;;;4993713;28;20025;-80
2022/03/03 00:44:21;;;;;;;34.35;17.52;;;1.80;99.90;;;;;;5007820;28;20034;-81
2022/03/03 00:46:47;;;;;;;29.40;15.55;;;1.80;99.90;;;;;;5006967;28;20084;-80
2022/03/03 00:49:13;;;;;;;29.42;15.55;;;1.70;99.90;;;;;;5003047;28;20064;-80
2022/03/03 00:51:39;;;;;;;31.98;16.35;;;1.60;99.90;;;;;;5021674;28;20111;-81
2022/03/03 00:54:05;;;;;;;28.48;15.43;;;1.70;99.90;;;;;;5019802;28;20026;-80
2022/03/03 00:56:31;;;;;;;32.58;17.13;;;1.70;99.90;;;;;;5016462;28;20029;-80
2022/03/03 00:58:56;;;;;;;33.35;16.45;;;1.70;99.90;;;;;;5000413;28;20038;-80
2022/03/03 01:01:22;;;;;;;33.60;15.98;;;1.70;99.90;;;;;;5010641;28;20038;-79
2022/03/03 01:03:48;;;;;;;31.60;16.50;;;1.60;99.90;;;;;;5024936;28;20026;-81
2022/03/03 01:06:14;;;;;;;31.50;16.13;;;1.60;99.90;;;;;;5014317;28;20030;-82
2022/03/03 01:08:41;;;;;;;30.95;15.63;;;1.60;99.90;;;;;;5004297;28;20402;-79
2022/03/03 01:11:07;;;;;;;31.92;16.73;;;1.60;99.90;;;;;;4998223;28;20470;-79
2022/03/03 01:13:34;;;;;;;29.67;15.88;;;1.60;99.90;;;;;;4994144;28;20097;-80
2022/03/03 01:16:00;;;;;;;29.77;16.20;;;1.50;99.90;;;;;;5000048;28;20462;-79
2022/03/03 01:18:26;;;;;;;28.83;14.93;;;1.50;99.90;;;;;;5016629;28;20038;-80
2022/03/03 01:20:54;;;;;;;30.88;15.88;;;1.50;99.90;;;;;;5018683;28;20026;-79
2022/03/03 01:23:21;;;;;;;30.63;16.02;;;1.50;99.90;;;;;;5015182;28;20022;-80
2022/03/03 01:25:47;;;;;;;28.63;15.38;;;1.40;99.90;;;;;;5001560;28;20021;-82
2022/03/03 01:28:13;;;;;;;28.15;15.60;;;1.40;99.90;;;;;;5001641;28;20041;-79
2022/03/03 01:30:39;;;;;;;30.52;15.75;;;1.40;99.90;;;;;;5016670;28;20076;-81
2022/03/03 01:33:06;;;;;;;29.27;15.90;;;1.40;99.90;;;;;;5017213;28;20027;-78
2022/03/03 01:35:32;;;;;;;30.88;15.88;;;1.30;99.90;;;;;;5004828;28;20022;-80
2022/03/03 01:37:58;;;;;;;25.33;14.73;;;1.30;99.90;;;;;;4999398;28;20026;-80
2022/03/03 01:40:25;;;;;;;30.23;16.15;;;1.40;99.90;;;;;;4995057;28;20085;-79
2022/03/03 01:42:52;;;;;;;31.65;16.13;;;1.10;99.90;;;;;;4994901;28;20033;-80
2022/03/03 01:45:18;;;;;;;26.85;14.63;;;;;;;;;;4990911;28;20025;-79
2022/03/03 01:47:45;;;;;;;28.77;16.58;;;0.80;99.90;;;;;;4996216;28;20034;-78
2022/03/03 01:50:13;;;;;;;28.70;15.65;;;1.20;99.90;;;;;;5011470;28;20402;-78
2022/03/03 01:52:40;;;;;;;30.63;15.20;;;1.20;99.90;;;;;;4995827;28;20100;-79
2022/03/03 01:55:08;;;;;;;27.10;14.98;;;1.10;99.90;;;;;;5010080;28;20027;-78
2022/03/03 01:57:35;;;;;;;31.58;16.13;;;1.10;99.90;;;;;;4979546;28;20049;-78
2022/03/03 02:00:03;;;;;;;28.30;15.57;;;1.20;99.90;;;;;;4994800;28;20126;-79
2022/03/03 02:02:29;;;;;;;27.67;14.60;;;1.20;99.90;;;;;;4977897;28;20064;-79
2022/03/03 02:04:56;;;;;;;25.98;14.38;;;1.20;99.90;;;;;;5005733;28;20034;-78
2022/03/03 02:07:23;;;;;;;27.60;13.90;;;1.20;99.90;;;;;;5004642;28;20021;-79
2022/03/03 02:09:50;;;;;;;27.80;14.60;;;1.20;99.90;;;;;;5003668;28;20119;-80
2022/03/03 02:12:18;;;;;;;28.25;14.73;;;1.20;99.90;;;;;;5025792;28;20093;-79
2022/03/03 02:14:48;;;;;;;25.88;14.38;;;1.20;99.90;;;;;;5008792;28;20021;-78
2022/03/03 02:17:16;;;;;;;25.08;14.07;;;1.10;99.90;;;;;;5029544;28;20015;-78
2022/03/03 02:19:44;;;;;;;28.98;15.60;;;1.10;99.90;;;;;;5015995;28;20060;-78
2022/03/03 02:22:12;;;;;;;27.75;14.57;;;1.10;99.90;;;;;;5029440;28;20026;-78
2022/03/03 02:24:38;;;;;;;30.02;15.32;;;1.10;99.90;;;;;;5015275;28;20049;-78
2022/03/03 02:27:06;;;;;;;27.05;14.05;;;1.00;99.90;;;;;;5015273;28;20025;-78
2022/03/03 02:29:33;;;;;;;30.35;15.68;;;1.00;99.90;;;;;;5014773;28;20093;-79
2022/03/03 02:32:02;;;;;;;29.63;14.98;;;1.00;99.90;;;;;;5013524;28;20189;-78
2022/03/03 02:34:29;;;;;;;26.30;14.57;;;1.00;99.90;;;;;;5014209;28;20018;-78
2022/03/03 02:36:58;;;;;;;33.72;14.73;;;1.00;99.90;;;;;;5028659;28;20030;-79
2022/03/03 02:39:26;;;;;;;26.30;14.35;;;1.00;99.90;;;;;;4994601;28;20084;-79
2022/03/03 02:41:54;;;;;;;29.80;14.27;;;1.00;99.90;;;;;;5014607;28;20073;-79
2022/03/03 02:44:20;;;;;;;28.35;13.80;;;1.00;99.90;;;;;;5005069;28;20037;-79
2022/03/03 02:46:48;;;;;;;27.23;14.38;;;1.00;99.90;;;;;;5029207;28;20049;-78
2022/03/03 02:49:15;;;;;;;28.13;15.27;;;1.00;99.90;;;;;;5027727;28;20040;-78
2022/03/03 02:51:45;;;;;;;24.90;14.32;;;1.00;99.90;;;;;;5029665;28;20045;-77
2022/03/03 02:54:11;;;;;;;30.40;15.25;;;0.90;99.90;;;;;;4995933;28;20033;-78
2022/03/03 02:59:25;;;;;;;29.15;14.77;;;0.90;99.90;;;;;;5029962;28;20139;-78
2022/03/03 03:01:52;;;;;;;24.98;14.48;;;0.90;99.90;;;;;;5015029;28;20038;-78
2022/03/03 03:04:18;;;;;;;27.23;14.05;;;1.00;99.90;;;;;;4997801;28;20048;-79
2022/03/03 03:06:45;;;;;;;28.52;15.02;;;0.90;99.90;;;;;;5008265;28;20089;-79
2022/03/03 03:09:13;;;;;;;25.83;14.90;;;0.90;99.90;;;;;;5008727;28;20093;-80
2022/03/03 03:11:41;;;;;;;25.00;14.50;;;0.90;99.90;;;;;;4989692;28;20571;-79
2022/03/03 03:14:11;;;;;;;30.23;14.13;;;0.90;99.90;;;;;;4996112;28;20076;-80
2022/03/03 03:16:37;;;;;;;33.03;14.23;;;0.80;99.90;;;;;;4993932;28;20486;-80
2022/03/03 03:19:05;;;;;;;34.63;15.20;;;0.80;99.90;;;;;;4998816;28;20026;-80
2022/03/03 03:21:33;;;;;;;29.38;15.68;;;0.80;99.90;;;;;;5003878;28;20037;-80
2022/03/03 03:24:00;;;;;;;28.35;15.43;;;0.80;99.90;;;;;;5027537;28;20045;-78
2022/03/03 03:26:27;;;;;;;30.67;16.08;;;0.80;99.90;;;;;;5017999;28;20041;-79
2022/03/03 03:28:53;;;;;;;33.10;16.92;;;0.80;99.90;;;;;;4997482;28;20034;-78
2022/03/03 03:31:20;;;;;;;35.22;18.05;;;0.80;99.90;;;;;;4997772;28;20068;-79
2022/03/03 03:33:47;;;;;;;32.50;17.77;;;0.80;99.90;;;;;;5022056;28;20034;-80
2022/03/03 03:36:16;;;;;;;37.00;19.15;;;0.80;99.90;;;;;;5002670;28;20037;-80
2022/03/03 03:38:43;;;;;;;42.05;20.20;;;0.80;99.90;;;;;;5002554;28;20029;-80
2022/03/03 03:41:10;;;;;;;38.33;20.05;;;0.70;99.90;;;;;;5020670;28;20030;-79
2022/03/03 03:43:37;;;;;;;40.67;20.00;;;0.70;99.90;;;;;;5001853;28;20041;-81
2022/03/03 03:46:05;;;;;;;38.55;19.77;;;0.70;99.90;;;;;;5020347;28;20064;-79
2022/03/03 03:48:33;;;;;;;37.28;19.50;;;0.70;99.90;;;;;;5002444;28;20045;-79
2022/03/03 03:51:00;;;;;;;35.72;18.35;;;0.60;99.90;;;;;;5012649;28;20534;-80
2022/03/03 03:53:29;;;;;;;31.85;15.85;;;0.70;99.90;;;;;;5008141;28;20061;-79
2022/03/03 03:55:57;;;;;;;25.73;15.25;;;0.70;99.90;;;;;;5018256;28;20064;-79
2022/03/03 03:58:25;;;;;;;29.65;14.00;;;0.70;99.90;;;;;;5018814;28;20030;-79
2022/03/03 04:00:53;;;;;;;28.33;14.60;;;0.70;99.90;;;;;;5019668;28;20029;-80
2022/03/03 04:03:20;;;;;;;30.58;15.23;;;0.70;99.90;;;;;;5019320;28;20041;-80
2022/03/03 04:05:47;;;;;;;30.73;16.45;;;0.60;99.90;;;;;;5003073;28;20046;-79
2022/03/03 04:08:14;;;;;;;33.10;15.90;;;0.60;99.90;;;;;;5002771;28;20030;-78
2022/03/03 04:10:40;;;;;;;29.27;15.93;;;0.60;99.90;;;;;;5001202;28;20030;-79
2022/03/03 04:13:08;;;;;;;30.40;15.77;;;0.60;99.90;;;;;;5001721;28;20033;-80
2022/03/03 04:15:35;;;;;;;29.42;16.60;;;0.60;99.90;;;;;;5021336;28;20390;-80
2022/03/03 04:18:01;;;;;;;24.98;14.45;;;0.60;99.90;;;;;;5018222;28;20090;-80
2022/03/03 04:20:28;;;;;;;31.05;15.77;;;0.60;99.90;;;;;;5002054;28;20498;-78
2022/03/03 04:22:54;;;;;;;30.52;15.48;;;0.60;99.90;;;;;;5003127;28;20014;-79
2022/03/03 04:25:22;;;;;;;28.85;15.23;;;0.50;99.90;;;;;;5003702;28;20045;-78
2022/03/03 04:27:50;;;;;;;29.58;15.38;;;0.50;99.90;;;;;;5000840;28;20032;-80
2022/03/03 04:30:18;;;;;;;30.55;15.90;;;0.50;99.90;;;;;;4999949;28;20461;-80
2022/03/03 04:32:45;;;;;;;26.13;15.48;;;0.50;99.90;;;;;;5003095;28;20030;-79
2022/03/03 04:35:14;;;;;;;30.27;15.50;;;0.50;99.90;;;;;;5003064;28;20069;-79
2022/03/03 04:37:40;;;;;;;28.20;14.57;;;0.50;99.90;;;;;;5000413;28;20407;-78
2022/03/03 04:40:08;;;;;;;25.80;15.10;;;0.50;99.90;;;;;;5003385;28;20041;-79
2022/03/03 04:42:37;;;;;;;26.60;14.52;;;0.50;99.90;;;;;;4986697;28;20040;-79
2022/03/03 04:45:04;;;;;;;26.13;14.73;;;0.50;99.90;;;;;;5001243;28;20038;-78
2022/03/03 04:47:38;;;;;;;28.40;14.60;;;0.50;99.90;;;;;;5012489;28;20203;-77
2022/03/03 04:50:05;;;;;;;29.00;13.95;;;0.50;99.90;;;;;;5008208;28;20030;-78
2022/03/03 04:52:32;;;;;;;26.50;15.13;;;0.50;99.90;;;;;;5020362;22;20045;-82
2022/03/03 04:54:58;;;;;;;31.65;14.73;;;0.50;99.90;;;;;;5027488;28;20030;-85
2022/03/03 04:57:24;;;;;;;30.17;15.48;;;0.50;99.90;;;;;;5035603;28;20048;-85
2022/03/03 04:59:50;;;;;;;34.88;17.05;;;0.50;99.90;;;;;;5031748;28;20088;-85
2022/03/03 05:02:15;;;;;;;33.80;17.02;;;0.50;99.90;;;;;;5021203;28;20556;-82
2022/03/03 05:04:41;;;;;;;29.35;15.95;;;0.50;99.90;;;;;;5014604;28;20037;-86
2022/03/03 05:07:07;;;;;;;36.33;17.35;;;0.50;99.90;;;;;;5020056;28;20112;-84
2022/03/03 05:09:32;;;;;;;38.10;17.77;;;0.40;99.90;;;;;;5037337;28;20026;-83
2022/03/03 05:11:59;;;;;;;38.17;19.15;;;0.40;99.90;;;;;;5019412;28;20036;-84
2022/03/03 05:14:25;;;;;;;35.33;18.70;;;0.60;99.90;;;;;;5019895;28;20405;-80
2022/03/03 05:16:51;;;;;;;35.42;18.88;;;0.30;99.90;;;;;;5039244;28;20061;-80
2022/03/03 05:19:17;;;;;;;39.47;19.08;;;0.30;99.90;;;;;;5037142;28;20543;-80
2022/03/03 05:21:46;;;;;;;35.90;18.48;;;0.30;99.90;;;;;;5022391;28;20033;-80
2022/03/03 05:24:12;;;;;;;33.65;18.92;;;0.30;99.90;;;;;;5021642;28;20036;-81
2022/03/03 05:26:38;;;;;;;35.22;19.15;;;0.30;99.90;;;;;;5015244;28;20497;-83
2022/03/03 05:29:03;;;;;;;34.97;19.58;;;0.30;99.90;;;;;;5021658;28;20029;-81
2022/03/03 05:31:29;;;;;;;37.13;19.02;;;0.40;99.90;;;;;;5016642;28;20040;-81
2022/03/03 05:33:55;;;;;;;37.92;18.67;;;0.40;99.90;;;;;;5008549;28;20109;-81
2022/03/03 05:36:24;;;;;;;39.95;19.65;;;0.30;99.90;;;;;;5019633;28;20025;-81
2022/03/03 05:38:50;;;;;;;38.90;18.05;;;;;;;;;;5020146;28;20033;-79
2022/03/03 05:41:16;;;;;;;36.42;18.35;;;0.40;99.90;;;;;;5016276;28;20071;-79
2022/03/03 05:43:42;;;;;;;35.45;19.10;;;0.30;99.90;;;;;;5038201;28;20045;-81
2022/03/03 05:46:08;;;;;;;34.75;17.65;;;0.40;99.90;;;;;;5019795;28;20022;-81
2022/03/03 05:48:34;;;;;;;31.50;16.00;;;;;;;;;;5024391;28;20023;-81
2022/03/03 05:51:00;;;;;;;26.15;15.07;;;0.40;99.90;;;;;;5024576;28;20025;-81
2022/03/03 05:53:26;;;;;;;27.35;14.77;;;0.30;99.90;;;;;;5023931;28;20068;-80
2022/03/03 05:55:54;;;;;;;30.13;14.55;;;0.30;99.90;;;;;;5017741;28;20044;-81
2022/03/03 05:58:23;;;;;;;28.77;15.35;;;0.30;99.90;;;;;;5020680;28;20032;-83
2022/03/03 06:00:58;;;;;;;33.35;15.85;;;0.30;99.90;;;;;;5019163;28;20036;-84
2022/03/03 06:03:33;;;;;;;32.58;17.08;;;0.30;99.90;;;;;;5031395;28;20042;-81
2022/03/03 06:06:18;;;;;;;;;;;0.40;99.90;;;;;;5044017;28;20032;-81
2022/03/03 06:09:17;;;;;;;33.03;16.08;;;0.30;99.90;;;;;;5030804;28;19909;-84
2022/03/03 06:12:09;;;;;;;27.58;14.10;;;1.60;99.90;;;;;;5022371;28;20045;-85
2022/03/03 06:14:47;;;;;;;27.33;15.05;;;0.40;99.90;;;;;;5028907;28;20060;-81
2022/03/03 06:17:17;;;;;;;28.02;14.80;;;0.40;99.90;;;;;;5030740;28;20034;-83
2022/03/03 06:19:45;;;;;;;31.00;17.48;;;0.20;99.90;;;;;;5041236;28;20056;-84
2022/03/03 06:22:14;;;;;;;31.15;16.75;;;0.40;99.90;;;;;;5034973;28;20488;-82
2022/03/03 06:24:42;;;;;;;33.92;17.25;;;0.40;99.90;;;;;;5014798;28;20104;-83
2022/03/03 06:27:10;;;;;;;34.25;17.95;;;0.40;99.90;;;;;;5031839;28;20328;-81
2022/03/03 06:29:38;;;;;;;34.08;18.15;;;0.40;99.90;;;;;;5027296;28;20029;-83
2022/03/03 06:32:07;;;;;;;29.17;16.33;;;0.40;99.90;;;;;;5023798;28;20085;-81
2022/03/03 06:34:33;;;;;;;30.65;16.15;;;0.40;99.90;;;;;;5022927;28;20029;-81
2022/03/03 06:36:59;;;;;;;29.27;15.48;;;0.40;99.90;;;;;;5011592;28;20560;-82
2022/03/03 06:39:26;;;;;;;28.70;16.65;;;2.30;99.90;;;;;;5000924;28;20036;-83
2022/03/03 06:41:53;;;;;;;27.85;15.68;;;0.40;99.90;;;;;;5023342;28;20021;-81
2022/03/03 06:44:21;;;;;;;32.58;17.63;;;0.40;99.90;;;;;;5005807;28;20041;-81
2022/03/03 06:46:57;;;;;;;28.55;16.48;;;0.40;99.90;;;;;;5019977;28;20090;-81
2022/03/03 06:49:50;;;;;;;27.60;15.20;;;0.40;99.90;;;;;;5028588;28;20113;-81
2022/03/03 06:52:24;;;;;;;28.15;16.08;;;0.40;99.90;;;;;;5023325;28;20028;-80
2022/03/03 06:54:58;;;;;;;32.63;16.67;;;0.50;99.90;;;;;;5026317;28;20069;-80
2022/03/03 06:57:26;;;;;;;29.17;15.73;;;0.50;99.90;;;;;;5020664;28;20037;-82
2022/03/03 07:00:01;;;;;;;33.30;16.42;;;0.50;99.90;;;;;;5030939;28;20048;-81
2022/03/03 07:02:27;;;;;;;35.20;17.60;;;0.60;99.90;;;;;;5022185;28;20508;-82
2022/03/03 07:04:54;;;;;;;48.03;19.65;;;0.60;99.90;;;;;;5020494;28;20737;-83
2022/03/03 07:07:21;;;;;;;28.13;15.85;;;0.70;99.90;;;;;;5023575;28;20033;-82
2022/03/03 07:09:47;;;;;;;29.52;15.60;;;0.80;99.90;;;;;;5042862;28;20036;-82
2022/03/03 07:12:16;;;;;;;29.00;16.52;;;1.80;99.90;;;;;;5028496;28;20557;-84
2022/03/03 07:14:41;;;;;;;28.95;16.25;;;0.80;99.90;;;;;;5036726;28;20033;-81
2022/03/03 07:17:21;;;;;;;43.03;17.52;;;0.90;99.90;;;;;;5020184;28;20049;-82
2022/03/03 07:19:58;;;;;;;31.70;16.08;;;0.90;99.90;;;;;;5015305;28;20033;-82
2022/03/03 07:22:32;;;;;;;31.17;16.95;;;1.00;99.90;;;;;;5020444;28;20029;-83
2022/03/03 07:25:08;;;;;;;31.73;16.58;;;1.00;99.90;;;;;;5024202;28;20029;-83
2022/03/03 07:27:34;;;;;;;28.52;15.20;;;1.10;99.90;;;;;;5021553;28;20021;-81
2022/03/03 07:30:10;;;;;;;31.27;16.13;;;1.20;99.90;;;;;;5021473;28;20025;-83
2022/03/03 07:32:39;;;;;;;35.85;16.85;;;1.30;99.90;;;;;;5000452;28;20930;-81
2022/03/03 07:35:12;;;;;;;34.08;17.20;;;2.20;99.90;;;;;;5043736;28;20033;-82
2022/03/03 07:37:52;;;;;;;33.80;17.50;;;1.40;99.90;;;;;;5028266;28;20037;-81
2022/03/03 07:40:18;;;;;;;33.75;16.05;;;1.40;99.90;;;;;;5024949;28;20033;-80
2022/03/03 07:42:45;;;;;;;29.98;16.33;;;1.50;99.90;;;;;;5037409;28;20100;-82
2022/03/03 07:45:11;;;;;;;33.17;17.13;;;1.60;99.90;;;;;;5025085;28;20034;-83
2022/03/03 07:47:39;;;;;;;32.78;17.08;;;0.10;99.90;;;;;;5027507;28;20034;-82
2022/03/03 07:50:06;;;;;;;56.33;24.75;;;1.70;99.90;;;;;;5031344;28;20394;-83
2022/03/03 07:52:32;;;;;;;34.47;18.58;;;1.70;99.90;;;;;;5049522;28;20059;-83
2022/03/03 07:54:57;;;;;;;31.58;17.10;;;3.10;99.90;;;;;;5027788;28;20025;-83
2022/03/03 07:57:32;;;;;;;29.63;16.25;;;2.50;99.90;;;;;;5023858;28;20453;-81
2022/03/03 08:00:06;;;;;;;32.05;16.80;;;3.90;99.90;;;;;;5012017;28;20029;-82
2022/03/03 08:02:33;;;;;;;27.83;15.43;;;1.70;99.90;;;;;;5033690;28;20025;-80
2022/03/03 08:05:05;;;;;;;30.65;16.25;;;3.10;99.90;;;;;;5013101;28;20030;-82
2022/03/03 08:07:43;;;;;;;31.55;17.23;;;2.50;99.90;;;;;;5013055;28;20025;-82
2022/03/03 08:10:09;;;;;;;35.45;16.73;;;2.30;99.90;;;;;;5033604;28;20044;-82
2022/03/03 08:12:37;;;;;;;30.95;16.10;;;2.50;99.90;;;;;;5017773;28;20102;-83
2022/03/03 08:15:03;;;;;;;25.35;14.82;;;2.60;99.90;;;;;;5023449;28;20490;-82
2022/03/03 08:17:30;;;;;;;31.63;15.60;;;2.70;99.90;;;;;;5023133;28;20025;-81
2022/03/03 08:19:56;;;;;;;30.77;15.63;;;3.10;99.90;;;;;;5017948;28;20037;-81
2022/03/03 08:22:24;;;;;;;27.70;14.73;;;4.50;99.90;;;;;;5015501;28;20522;-82
2022/03/03 08:24:55;;;;;;;27.42;15.55;;;4.40;99.90;;;;;;5018327;28;20048;-81
2022/03/03 08:27:22;;;;;;;33.22;15.02;;;5.50;99.90;;;;;;5016770;28;20044;-81
2022/03/03 08:29:49;;;;;;;27.95;15.43;;;3.20;99.90;;;;;;5015674;28;20498;-83
2022/03/03 08:32:17;;;;;;;26.15;15.43;;;3.30;99.90;;;;;;5015818;28;20045;-82
2022/03/03 08:35:01;;;;;;;24.20;14.05;;;4.50;99.90;;;;;;5014945;28;20375;-82
2022/03/03 08:37:40;;;;;;;29.90;15.18;;;3.50;99.90;;;;;;5027782;28;20033;-83
2022/03/03 08:40:09;;;;;;;26.55;15.60;;;3.50;99.90;;;;;;5024862;28;20104;-82
2022/03/03 08:42:37;;;;;;;27.40;14.07;;;3.60;99.90;;;;;;5028119;28;20203;-82
2022/03/03 08:45:06;;;;;;;28.15;14.20;;;4.00;99.90;;;;;;5038648;28;20025;-83
2022/03/03 08:47:32;;;;;;;27.77;14.25;;;4.00;99.90;;;;;;5018132;28;20049;-80
2022/03/03 08:50:11;;;;;;;29.17;15.82;;;4.20;99.90;;;;;;5016866;28;20028;-80
2022/03/03 08:52:41;;;;;;;30.08;14.82;;;4.40;99.90;;;;;;5039226;28;20083;-83
2022/03/03 08:55:10;;;;;;;23.42;13.73;;;5.60;99.90;;;;;;5026234;28;20048;-84
2022/03/03 08:57:39;;;;;;;26.88;14.15;;;4.40;99.90;;;;;;5017802;28;20041;-81
2022/03/03 09:00:08;;;;;;;27.38;14.98;;;4.50;99.90;;;;;;5019065;28;20021;-80
2022/03/03 09:02:34;;;;;;;27.45;15.23;;;4.60;99.90;;;;;;5018734;28;20025;-82
2022/03/03 09:05:00;;;;;;;29.65;15.77;;;4.80;99.90;;;;;;5014852;28;20026;-85
2022/03/03 09:07:26;;;;;;;25.63;14.75;;;4.90;99.90;;;;;;5009948;28;20025;-83
2022/03/03 09:09:51;;;;;;;25.58;14.38;;;5.00;99.90;;;;;;5010298;28;20029;-81
2022/03/03 09:12:17;;;;;;;28.13;15.40;;;5.20;99.90;;;;;;5021940;28;20036;-82
2022/03/03 09:14:46;;;;;;;24.55;14.32;;;5.30;99.90;;;;;;5015043;28;20359;-82
2022/03/03 09:17:12;;;;;;;23.42;14.02;;;5.40;99.90;;;;;;5040117;28;20075;-82
2022/03/03 09:19:38;;;;;;;23.02;14.48;;;5.60;99.90;;;;;;5023110;28;20037;-81
2022/03/03 09:22:04;;;;;;;24.90;15.38;;;5.70;99.90;;;;;;5021755;28;20269;-81
2022/03/03 09:24:30;;;;;;;27.75;14.70;;;5.70;99.90;;;;;;5048299;28;20025;-82
2022/03/03 09:26:57;;;;;;;24.08;15.07;;;;;;;;;;5022861;28;20030;-84
2022/03/03 09:29:23;;;;;;;23.88;14.43;;;;;;;;;;5022009;28;20051;-82
2022/03/03 09:31:49;;;;;;;26.35;14.40;;;6.30;98.80;;;;;;5017806;28;20032;-82
2022/03/03 09:34:15;;;;;;;28.95;17.00;;;;;;;;;;5018683;28;20097;-82
2022/03/03 09:36:42;;;;;;;23.48;13.77;;;;;;;;;;5036217;28;20060;-81
2022/03/03 09:39:08;;;;;;;23.55;14.00;;;;;;;;;;5014203;28;20367;-79
2022/03/03 09:41:34;;;;;;;20.08;12.82;;;;;;;;;;5021958;28;20033;-80
2022/03/03 09:44:00;;;;;;;22.73;13.65;;;;;;;;;;5020581;28;20099;-81
2022/03/03 09:46:26;;;;;;;22.23;12.95;;;;;;;;;;5022815;28;20108;-83
2022/03/03 09:48:53;;;;;;;22.52;13.88;;;;;;;;;;5019446;28;20033;-81
2022/03/03 09:51:19;;;;;;;22.48;13.73;;;;;;;;;;5034872;28;20028;-80
2022/03/03 09:53:49;;;;;;;21.70;13.50;;;7.40;92.90;;;;;;5038078;28;20164;-81
2022/03/03 09:56:16;;;;;;;18.67;12.30;;;;;;;;;;5019123;28;20482;-81
2022/03/03 09:58:42;;;;;;;22.42;14.10;;;;;;;;;;5020624;28;20033;-79
2022/03/03 10:01:08;;;;;;;24.15;14.25;;;;;;;;;;5037631;28;20037;-81
2022/03/03 10:03:36;;;;;;;22.50;14.23;;;7.80;90.90;;;;;;5029504;28;20053;-85
2022/03/03 10:06:02;;;;;;;22.15;12.82;;;;;;;;;;5032253;28;20053;-81
2022/03/03 10:08:29;;;;;;;22.70;14.15;;;8.40;88.20;;;;;;5020295;28;20024;-81
2022/03/03 10:10:57;;;;;;;21.17;13.98;;;9.00;81.80;;;;;;5033455;28;20025;-78
2022/03/03 10:13:23;;;;;;;22.10;13.70;;;;;;;;;;5015709;28;20021;-84
2022/03/03 10:16:01;;;;;;;21.65;13.73;;;9.50;80.30;;;;;;5014862;28;20029;-83
2022/03/03 10:18:27;;;;;;;23.67;13.32;;;9.90;77.60;;;;;;5017645;28;20087;-81
2022/03/03 10:20:56;;;;;;;23.40;13.60;;;9.70;73.30;;;;;;5032009;28;20038;-80
2022/03/03 10:23:29;;;;;;;21.63;14.32;;;10.40;69.20;;;;;;5007375;28;20131;-79
2022/03/03 10:25:59;;;;;;;25.55;13.15;;;9.90;69.40;;;;;;5017587;28;20036;-82
2022/03/03 10:28:35;;;;;;;;;;;9.80;70.60;;;;;;5017751;28;20026;-79
2022/03/03 10:31:07;;;;;;;21.40;13.05;;;9.80;70.90;;;;;;5021542;28;19909;-87
2022/03/03 10:33:45;;;;;;;22.70;13.10;;;9.40;71.70;;;;;;5020202;28;20025;-79
2022/03/03 10:36:23;;;;;;;21.83;12.93;;;9.40;71.40;;;;;;5010436;28;20053;-80
2022/03/03 10:39:00;;;;;;;25.30;12.45;;;8.80;73.60;;;;;;5013287;28;20021;-81
2022/03/03 10:41:35;;;;;;;22.30;13.70;;;9.40;71.10;;;;;;5031454;28;20509;-80
2022/03/03 10:44:12;;;;;;;21.70;12.80;;;9.40;72.40;;;;;;4998786;28;20092;-79
2022/03/03 10:46:59;;;;;;;22.10;13.85;;;9.40;70.80;;;;;;5010451;28;20025;-80
2022/03/03 10:49:25;;;;;;;20.98;13.20;;;;;;;;;;5016120;28;20025;-82
2022/03/03 10:54:31;;;;;;;19.73;12.45;;;9.60;70.40;;;;;;5041410;28;20046;-80
2022/03/03 10:56:56;;;;;;;24.60;13.73;;;10.40;70.00;;;;;;5035860;28;20999;-79
2022/03/03 10:59:24;;;;;;;21.75;13.38;;;10.80;67.70;;;;;;5026245;28;20057;-77
2022/03/03 11:01:51;;;;;;;24.17;13.65;;;11.30;63.80;;;;;;5037724;28;20033;-80
2022/03/03 11:04:23;;;;;;;20.15;13.25;;;11.60;63.50;;;;;;5030243;28;20051;-78
2022/03/03 11:06:53;;;;;;;22.48;13.68;;;12.10;61.40;;;;;;5042344;28;20025;-78
2022/03/03 11:09:19;;;;;;;22.45;13.40;;;12.40;59.70;;;;;;5013787;28;20022;-78
2022/03/03 11:11:46;;;;;;;22.52;13.23;;;14.60;60.30;;;;;;5023965;28;20038;-77
2022/03/03 11:14:12;;;;;;;24.67;13.80;;;12.30;58.80;;;;;;5019718;28;20033;-80
2022/03/03 11:16:41;;;;;;;22.10;13.52;;;12.30;59.00;;;;;;5020369;28;20040;-79
2022/03/03 11:19:10;;;;;;;24.35;14.10;;;12.30;58.70;;;;;;5047490;28;20068;-80
2022/03/03 11:21:36;;;;;;;21.83;13.30;;;12.90;57.00;;;;;;5036351;28;20060;-78
2022/03/03 11:24:02;;;;;;;23.38;13.18;;;13.10;56.30;;;;;;5026741;28;20032;-79
2022/03/03 11:26:45;;;;;;;24.45;13.73;;;13.00;55.70;;;;;;5051514;28;20026;-78
2022/03/03 11:29:39;;;;;;;22.27;12.73;;;13.40;55.60;;;;;;5020251;28;20029;-80
2022/03/03 11:32:15;;;;;;;19.55;12.20;;;13.80;53.10;;;;;;5016515;28;20030;-80
2022/03/03 11:34:44;;;;;;;20.65;12.38;;;13.70;53.50;;;;;;5022682;28;20029;-79
2022/03/03 11:37:10;;;;;;;21.48;13.18;;;13.00;55.00;;;;;;5035194;28;20025;-81
2022/03/03 11:39:39;;;;;;;20.48;13.60;;;12.40;55.80;;;;;;5023744;28;20051;-79
2022/03/03 11:42:30;;;;;;;21.13;12.67;;;12.40;56.40;;;;;;5021402;28;20382;-80
2022/03/03 11:45:01;;;;;;;18.25;12.02;;;11.90;55.90;;;;;;5033988;28;20030;-80
2022/03/03 11:47:33;;;;;;;20.65;13.23;;;13.00;57.40;;;;;;5041554;28;20040;-80
2022/03/03 11:50:01;;;;;;;21.15;13.68;;;11.30;55.30;;;;;;5019787;28;20558;-78
2022/03/03 11:52:27;;;;;;;22.25;13.38;;;11.20;55.70;;;;;;5022763;28;20044;-80
2022/03/03 11:54:59;;;;;;;24.52;13.60;;;11.10;56.90;;;;;;5038873;28;20030;-81
2022/03/03 11:57:28;;;;;;;22.95;13.80;;;11.10;56.50;;;;;;5026675;28;20100;-80
2022/03/03 12:00:01;;;;;;;20.83;12.43;;;11.10;55.80;;;;;;5021321;28;20453;-80
2022/03/03 12:02:37;;;;;;;23.38;13.05;;;11.80;57.40;;;;;;5044299;28;20477;-80
2022/03/03 12:05:27;;;;;;;24.00;12.38;;;11.20;56.60;;;;;;5027482;28;20025;-80
2022/03/03 12:08:16;;;;;;;22.08;12.95;;;11.30;56.40;;;;;;5029482;28;20025;-80
2022/03/03 12:11:07;;;;;;;20.25;13.05;;;11.30;56.30;;;;;;5049833;28;20112;-78
2022/03/03 12:13:34;;;;;;;21.38;12.98;;;11.40;56.30;;;;;;5025797;28;20206;-79
2022/03/03 12:16:14;;;;;;;18.77;12.32;;;11.50;56.30;;;;;;5045518;28;20029;-80
2022/03/03 12:18:42;;;;;;;20.98;12.35;;;11.50;55.60;;;;;;5045705;28;20017;-80
2022/03/03 12:21:44;;;;;;;22.38;12.90;;;11.50;56.00;;;;;;5042428;28;20779;-78
2022/03/03 12:24:13;;;;;;;19.33;12.27;;;11.60;55.40;;;;;;5034601;28;20056;-78
2022/03/03 12:26:58;;;;;;;20.20;12.57;;;10.20;55.00;;;;;;5039673;28;20026;-80
2022/03/03 12:29:36;;;;;;;19.95;12.18;;;12.70;55.40;;;;;;5031228;28;20081;-80
2022/03/03 12:32:24;;;;;;;22.52;12.77;;;11.80;54.80;;;;;;5017760;28;20026;-79
2022/03/03 12:34:54;;;;;;;20.80;12.52;;;11.90;54.90;;;;;;5018489;28;20032;-80
2022/03/03 12:37:21;;;;;;;18.15;11.52;;;;;;;;;;5021449;28;20093;-80
2022/03/03 12:39:48;;;;;;;18.40;11.63;;;12.00;51.30;;;;;;5021405;28;20022;-80
2022/03/03 12:42:24;;;;;;;18.00;11.05;;;13.90;52.20;;;;;;5022278;28;20048;-77
2022/03/03 12:44:54;;;;;;;20.98;12.30;;;12.10;51.70;;;;;;5035641;28;20029;-79
2022/03/03 12:47:38;;;;;;;23.75;14.73;;;12.20;51.30;;;;;;5038244;28;20045;-80
2022/03/03 12:50:18;;;;;;;18.05;11.73;;;12.20;50.50;;;;;;5042087;28;20051;-78
2022/03/03 12:52:57;;;;;;;18.13;11.18;;;12.20;50.50;;;;;;5043179;28;20021;-78
2022/03/03 12:55:32;;;;;;;18.75;11.68;;;12.20;51.50;;;;;;5048022;28;20073;-76
2022/03/03 12:57:58;;;;;;;19.83;11.45;;;12.30;51.10;;;;;;5026279;28;20037;-76